createdAt,value
2023-04-16T00:00:59.794Z,12.79
2023-04-16T00:06:19.454Z,12.78
2023-04-16T00:11:39.051Z,12.78
2023-04-16T00:16:57.963Z,12.78
2023-04-16T00:22:17.635Z,12.78
2023-04-16T00:27:37.376Z,12.78
2023-04-16T00:32:57.045Z,12.78
2023-04-16T00:38:15.942Z,12.77
2023-04-16T00:43:35.244Z,12.77
2023-04-16T00:48:54.698Z,12.76
2023-04-16T00:54:14.157Z,12.76
2023-04-16T00:59:33.894Z,12.77
2023-04-16T01:04:53.330Z,12.76
2023-04-16T01:10:12.999Z,12.76
2023-04-16T01:15:32.585Z,12.76
2023-04-16T01:20:51.477Z,12.75
2023-04-16T01:26:11.008Z,12.74
2023-04-16T01:31:30.037Z,12.74
2023-04-16T01:36:49.348Z,12.74
2023-04-16T01:42:08.742Z,12.74
2023-04-16T01:47:28.411Z,12.73
2023-04-16T01:52:47.771Z,12.74
2023-04-16T01:58:06.988Z,12.73
2023-04-16T02:03:26.178Z,12.73
2023-04-16T02:08:45.244Z,12.72
2023-04-16T02:14:04.246Z,12.72
2023-04-16T02:19:23.506Z,12.72
2023-04-16T02:24:42.710Z,12.71
2023-04-16T02:30:02.352Z,12.71
2023-04-16T02:35:22.196Z,12.7
2023-04-16T02:40:41.756Z,12.71
2023-04-16T02:46:00.558Z,12.7
2023-04-16T02:51:20.240Z,12.7
2023-04-16T02:56:39.788Z,12.7
2023-04-16T03:01:58.898Z,12.7
2023-04-16T03:07:17.933Z,12.7
2023-04-16T03:12:37.145Z,12.69
2023-04-16T03:17:56.416Z,12.7
2023-04-16T03:23:15.737Z,12.7
2023-04-16T03:28:35.279Z,12.69
2023-04-16T03:33:54.836Z,12.69
2023-04-16T03:39:14.080Z,12.69
2023-04-16T03:44:32.935Z,12.69
2023-04-16T03:49:51.938Z,12.68
2023-04-16T03:55:11.610Z,12.68
2023-04-16T04:00:30.900Z,12.68
2023-04-16T04:05:50.448Z,12.68
2023-04-16T04:11:09.333Z,12.68
2023-04-16T04:16:28.190Z,12.68
2023-04-16T04:21:47.041Z,12.68
2023-04-16T04:27:06.248Z,12.69
2023-04-16T04:32:25.925Z,12.68
2023-04-16T04:37:45.205Z,12.67
2023-04-16T04:43:04.224Z,12.68
2023-04-16T04:48:23.974Z,12.68
2023-04-16T04:53:43.190Z,12.68
2023-04-16T04:59:02.619Z,12.68
2023-04-16T05:04:22.003Z,12.68
2023-04-16T05:09:40.751Z,12.67
2023-04-16T05:15:00.270Z,12.67
2023-04-16T05:20:19.578Z,12.68
2023-04-16T05:25:38.694Z,12.68
2023-04-16T05:30:58.297Z,12.69
2023-04-16T05:36:17.248Z,12.69
2023-04-16T05:41:36.915Z,12.7
2023-04-16T05:46:55.901Z,12.72
2023-04-16T05:52:14.808Z,12.74
2023-04-16T05:57:33.797Z,12.75
2023-04-16T06:02:53.386Z,12.76
2023-04-16T06:08:12.725Z,12.8
2023-04-16T06:13:31.759Z,12.78
2023-04-16T06:18:50.964Z,12.77
2023-04-16T06:24:10.255Z,12.76
2023-04-16T06:29:40.226Z,12.76
2023-04-16T06:34:48.918Z,12.75
2023-04-16T06:40:08.279Z,12.74
2023-04-16T06:45:27.084Z,12.72
2023-04-16T06:50:46.753Z,12.74
2023-04-16T06:56:05.485Z,12.76
2023-04-16T07:01:24.632Z,12.73
2023-04-16T07:06:43.693Z,12.75
2023-04-16T07:12:02.730Z,12.79
2023-04-16T07:17:21.550Z,12.82
2023-04-16T07:22:40.958Z,12.88
2023-04-16T07:28:00.045Z,12.99
2023-04-16T07:33:19.608Z,13.14
2023-04-16T07:38:38.378Z,13.29
2023-04-16T07:43:57.442Z,13.52
2023-04-16T07:49:17.056Z,13.6
2023-04-16T07:54:36.122Z,13.58
2023-04-16T07:59:55.270Z,13.56
2023-04-16T08:05:14.924Z,13.54
2023-04-16T08:10:33.633Z,13.51
2023-04-16T08:15:52.997Z,13.5
2023-04-16T08:16:17.329Z,13.48
2023-04-16T08:21:36.343Z,13.52
2023-04-16T08:26:55.910Z,13.58
2023-04-16T08:32:15.108Z,13.6
2023-04-16T08:37:34.513Z,13.58
2023-04-16T08:42:53.999Z,13.68
2023-04-16T08:48:12.940Z,13.83
2023-04-16T08:53:31.828Z,13.81
2023-04-16T08:58:50.702Z,13.67
2023-04-16T09:04:09.982Z,13.62
2023-04-16T09:09:29.346Z,13.61
2023-04-16T09:14:48.222Z,13.62
2023-04-16T09:20:07.358Z,13.59
2023-04-16T09:25:26.624Z,13.56
2023-04-16T09:30:45.889Z,13.54
2023-04-16T09:36:05.377Z,13.57
2023-04-16T09:41:24.859Z,13.67
2023-04-16T09:46:44.425Z,13.72
2023-04-16T09:52:03.986Z,13.79
2023-04-16T09:57:23.044Z,13.83
2023-04-16T10:02:42.373Z,13.79
2023-04-16T10:08:01.000Z,13.78
2023-04-16T10:13:20.196Z,13.76
2023-04-16T10:18:39.583Z,13.7
2023-04-16T10:23:58.992Z,13.63
2023-04-16T10:29:18.666Z,13.58
2023-04-16T10:34:37.878Z,13.57
2023-04-16T10:39:57.034Z,13.66
2023-04-16T10:45:16.196Z,13.7
2023-04-16T10:50:35.264Z,13.76
2023-04-16T10:55:54.430Z,13.81
2023-04-16T11:01:13.839Z,13.79
2023-04-16T11:06:32.695Z,13.81
2023-04-16T11:17:11.194Z,13.83
2023-04-16T11:22:30.457Z,13.96
2023-04-16T11:27:49.721Z,13.99
2023-04-16T11:33:08.653Z,13.96
2023-04-16T11:38:27.545Z,14.1
2023-04-16T11:43:47.115Z,14.14
2023-04-16T11:49:06.265Z,14.14
2023-04-16T11:54:25.489Z,14.08
2023-04-16T12:00:01.294Z,14.18
2023-04-16T12:05:03.385Z,14.31
2023-04-16T12:10:22.809Z,14.28
2023-04-16T12:15:41.848Z,14.37
2023-04-16T12:21:00.693Z,14.37
2023-04-16T12:31:39.749Z,14.35
2023-04-16T12:36:58.645Z,14.41
2023-04-16T12:42:18.249Z,14.4
2023-04-16T12:47:37.528Z,14.37
2023-04-16T12:52:56.256Z,14.37
2023-04-16T12:58:15.780Z,14.36
2023-04-16T13:03:34.626Z,14.17
2023-04-16T13:08:53.486Z,14.38
2023-04-16T13:14:12.568Z,14.37
2023-04-16T13:19:31.453Z,14.38
2023-04-16T13:24:50.545Z,14.37
2023-04-16T13:30:09.881Z,14.38
2023-04-16T13:35:29.578Z,14.37
2023-04-16T13:40:48.581Z,14.19
2023-04-16T13:46:08.237Z,14.04
2023-04-16T13:51:27.654Z,13.95
2023-04-16T13:56:47.285Z,14.04
2023-04-16T14:02:06.073Z,14.38
2023-04-16T14:07:24.948Z,13.92
2023-04-16T14:12:44.365Z,13.82
2023-04-16T14:18:03.704Z,13.76
2023-04-16T14:23:22.902Z,14.38
2023-04-16T14:28:42.506Z,14.37
2023-04-16T14:34:01.286Z,14.06
2023-04-16T14:39:20.856Z,13.86
2023-04-16T14:49:59.473Z,13.79
2023-04-16T14:55:18.613Z,13.69
2023-04-16T15:00:37.618Z,13.74
2023-04-16T15:05:57.177Z,14.38
2023-04-16T15:11:16.871Z,14.38
2023-04-16T15:16:36.277Z,14.19
2023-04-16T15:21:55.263Z,13.87
2023-04-16T15:27:14.155Z,13.92
2023-04-16T15:32:33.052Z,13.85
2023-04-16T15:37:52.463Z,13.76
2023-04-16T15:43:11.561Z,13.7
2023-04-16T15:48:30.818Z,13.72
2023-04-16T15:59:10.219Z,13.53
2023-04-16T16:04:29.135Z,13.45
2023-04-16T16:09:48.178Z,13.37
2023-04-16T16:15:07.366Z,13.32
2023-04-16T16:20:26.434Z,13.27
2023-04-16T16:25:45.851Z,13.23
2023-04-16T16:31:05.406Z,13.18
2023-04-16T16:36:24.637Z,13.15
2023-04-16T16:41:44.090Z,13.16
2023-04-16T16:47:03.128Z,13.2
2023-04-16T16:52:22.749Z,13.29
2023-04-16T16:57:41.624Z,13.44
2023-04-16T17:03:00.761Z,13.43
2023-04-16T17:08:19.174Z,13.32
2023-04-16T17:13:38.124Z,13.25
2023-04-16T17:24:17.175Z,13.13
2023-04-16T17:29:36.481Z,13.06
2023-04-16T17:34:58.836Z,13.03
2023-04-16T17:40:15.338Z,13
2023-04-16T17:45:34.880Z,12.98
2023-04-16T17:50:53.523Z,12.95
2023-04-16T17:56:12.123Z,12.93
2023-04-16T18:01:31.813Z,12.92
2023-04-16T18:06:50.683Z,12.92
2023-04-16T18:12:10.250Z,12.92
2023-04-16T18:17:29.167Z,12.91
2023-04-16T18:22:48.787Z,12.91
2023-04-16T18:28:07.963Z,12.9
2023-04-16T18:38:57.449Z,12.9
2023-04-16T18:44:06.101Z,12.9
2023-04-16T18:49:25.770Z,12.9
2023-04-16T18:54:45.377Z,12.9
2023-04-16T19:00:04.624Z,12.89
2023-04-16T19:05:23.775Z,12.89
2023-04-16T19:10:43.485Z,12.88
2023-04-16T19:21:22.050Z,12.88
2023-04-16T19:26:41.713Z,12.88
2023-04-16T19:37:20.601Z,12.88
2023-04-16T19:42:39.959Z,12.88
2023-04-16T19:47:59.219Z,12.88
2023-04-16T19:53:18.069Z,12.88
2023-04-16T19:58:37.637Z,12.88
2023-04-16T20:03:56.962Z,12.87
2023-04-16T20:09:16.401Z,12.87
2023-04-16T20:14:36.289Z,12.87
2023-04-16T20:19:54.986Z,12.87
2023-04-16T20:25:14.339Z,12.86
2023-04-16T20:30:33.761Z,12.86
2023-04-16T20:35:53.202Z,12.86
2023-04-16T20:41:11.940Z,12.86
2023-04-16T20:46:31.277Z,12.86
2023-04-16T20:51:50.349Z,12.86
2023-04-16T20:57:09.000Z,12.86
2023-04-16T21:02:28.006Z,12.86
2023-04-16T21:07:47.350Z,12.86
2023-04-16T21:13:06.958Z,12.85
2023-04-16T21:18:26.462Z,12.85
2023-04-16T21:23:45.413Z,12.85
2023-04-16T21:29:04.355Z,12.85
2023-04-16T21:34:23.409Z,12.85
2023-04-16T21:39:42.635Z,12.85
2023-04-16T21:45:02.118Z,12.85
2023-04-16T21:50:20.837Z,12.84
2023-04-16T21:55:40.035Z,12.84
2023-04-16T22:00:58.739Z,12.84
2023-04-16T22:06:17.982Z,12.84
2023-04-16T22:11:37.544Z,12.84
2023-04-16T22:16:56.646Z,12.84
2023-04-16T22:22:15.259Z,12.83
2023-04-16T22:27:34.650Z,12.84
2023-04-16T22:32:54.275Z,12.83
2023-04-16T22:38:13.391Z,12.83
2023-04-16T22:43:33.348Z,12.83
2023-04-16T22:48:51.899Z,12.83
2023-04-16T22:54:11.617Z,12.83
2023-04-16T22:59:30.090Z,12.83
2023-04-16T23:04:48.891Z,12.83
2023-04-16T23:10:07.769Z,12.82
2023-04-16T23:15:26.405Z,12.82
2023-04-16T23:20:45.595Z,12.82
2023-04-16T23:26:04.760Z,12.82
2023-04-16T23:31:24.204Z,12.82
2023-04-16T23:36:43.160Z,12.82
2023-04-16T23:42:02.333Z,12.82
2023-04-16T23:47:30.338Z,12.81
2023-04-16T23:52:40.746Z,12.81
2023-04-16T23:58:00.349Z,12.81
